Pagina principale
METAR-TAF:

METAR-TAF

Aeroporti :

Aeroporto di Francistown

Francistown, Botswana

latitudine: 21-13S, longitudine: 027-30E, altezza: 1001 m

Osservazione

Il bollettino è stato emesso 58 minuti fa, alle 08:00 UTC
Vento 5 kt da sud-est, variando fra est e sud
Temperature 29°C
Umidità 37%
Pressione 1020 hPa
Visibilità 10 km o più
nessuna nube inferiore a 1500 m e nessun cumulonembo

METAR: FBFT 010800Z 13005KT 080V190 CAVOK 29/13 Q1020

Ora: 10:58 (08:58 UTC)

Previsione

Il bollettino è stato emesso 2 ore e 58 minuti fa, alle 06:00 UTC
Previsione valida dal 01 alle 09 UTC al 01 alle 18 UTC
Vento 4 kt da est/sud-est
Visibilità 10 km o più
Nubi sparse ad un'altezza di 3000 ft
Nubi sparse ad un'altezza di 7000 ft

TAF: FBFT 010600Z 0109/0118 12004KT 9999 SCT030 SCT070

Osservazioni e previsioni meteorologiche di più di 4000 aeroporti (messaggi METAR e TAF).

Le stazioni disponibili sono rappresentate dai dischi gialli e rossi sulla carta.

Puntare il mouse per vedere il nome della stazione.

Clicca sopra per visualizzare le osservazioni e previsioni meteorologiche.

Per cambiare la mappa : fare clic sui pulsanti verdi con una croce nera per ingrandire, il pulsante verde con un trattino per diminuire, o sulla freccia verde per le mappe adiacenti.


METAR-TAF: